Mandalay, Burma
Current Conditions -  °F | °C
As of 9:30 AM on Sunday 25 Jan 2015 (Local Time) from VYMD Reporting Station
Few Clouds Few Clouds  
Wind Chill: 79°   Ceiling: Unl
Heat Index: 80°   Visibility: 4mi
Dew Point: 59°   Wind: 0mph
Humidity: 51%   Direction: NA
Pressure: 30.06"   Gusts: NA
Location:  21.98°N, 96.09°E
Report Text: VYMD 250330Z 00000KT 7000 FEW025 26/15 Q1018 NOSIG
Loading
Personal Weather Stations






























Interactive Weather Map New forecast layout! Learn more

10-Day Weather Forecast

Advertisements
Track Severe Weather on mobile